sensor_id;sensor_type;location;lat;lon;timestamp;P1;durP1;ratioP1;P2;durP2;ratioP2
70505;SDS011;58032;49.820;6.274;2022-08-14T00:00:41;5.47;;;2.40;;
70505;SDS011;58032;49.820;6.274;2022-08-14T00:03:19;4.45;;;2.58;;
70505;SDS011;58032;49.820;6.274;2022-08-14T00:05:53;4.13;;;2.42;;
70505;SDS011;58032;49.820;6.274;2022-08-14T00:08:21;4.32;;;2.55;;
70505;SDS011;58032;49.820;6.274;2022-08-14T00:10:49;4.53;;;2.53;;
70505;SDS011;58032;49.820;6.274;2022-08-14T00:13:17;4.23;;;2.50;;
70505;SDS011;58032;49.820;6.274;2022-08-14T00:15:47;4.95;;;2.50;;
70505;SDS011;58032;49.820;6.274;2022-08-14T00:18:19;4.93;;;2.85;;
70505;SDS011;58032;49.820;6.274;2022-08-14T00:20:48;3.85;;;2.60;;
70505;SDS011;58032;49.820;6.274;2022-08-14T00:23:15;4.90;;;2.75;;
70505;SDS011;58032;49.820;6.274;2022-08-14T00:25:45;3.60;;;2.23;;
70505;SDS011;58032;49.820;6.274;2022-08-14T00:28:14;3.72;;;2.45;;
70505;SDS011;58032;49.820;6.274;2022-08-14T00:30:41;4.10;;;2.83;;
70505;SDS011;58032;49.820;6.274;2022-08-14T00:33:08;3.58;;;2.40;;
70505;SDS011;58032;49.820;6.274;2022-08-14T00:35:35;5.28;;;2.58;;
70505;SDS011;58032;49.820;6.274;2022-08-14T00:38:03;5.87;;;2.70;;
70505;SDS011;58032;49.820;6.274;2022-08-14T00:40:30;4.55;;;2.63;;
70505;SDS011;58032;49.820;6.274;2022-08-14T00:42:57;4.22;;;2.58;;
70505;SDS011;58032;49.820;6.274;2022-08-14T00:45:24;4.68;;;2.75;;
70505;SDS011;58032;49.820;6.274;2022-08-14T00:47:51;4.30;;;2.78;;
70505;SDS011;58032;49.820;6.274;2022-08-14T00:50:19;6.37;;;2.77;;
70505;SDS011;58032;49.820;6.274;2022-08-14T00:52:47;4.00;;;2.55;;
70505;SDS011;58032;49.820;6.274;2022-08-14T00:55:18;5.07;;;3.10;;
70505;SDS011;58032;49.820;6.274;2022-08-14T00:57:46;4.85;;;3.10;;
70505;SDS011;58032;49.820;6.274;2022-08-14T01:00:37;6.32;;;2.90;;
70505;SDS011;58032;49.820;6.274;2022-08-14T01:03:06;5.37;;;3.13;;
70505;SDS011;58032;49.820;6.274;2022-08-14T01:05:33;4.53;;;2.72;;
70505;SDS011;58032;49.820;6.274;2022-08-14T01:08:01;4.10;;;2.55;;
70505;SDS011;58032;49.820;6.274;2022-08-14T01:10:29;5.78;;;3.10;;
70505;SDS011;58032;49.820;6.274;2022-08-14T01:13:15;4.53;;;2.80;;
70505;SDS011;58032;49.820;6.274;2022-08-14T01:15:45;4.80;;;3.00;;
70505;SDS011;58032;49.820;6.274;2022-08-14T01:18:14;4.38;;;2.83;;
70505;SDS011;58032;49.820;6.274;2022-08-14T01:21:00;4.60;;;2.88;;
70505;SDS011;58032;49.820;6.274;2022-08-14T01:23:35;4.18;;;3.10;;
70505;SDS011;58032;49.820;6.274;2022-08-14T01:26:08;5.40;;;2.95;;
70505;SDS011;58032;49.820;6.274;2022-08-14T01:28:35;6.60;;;3.00;;
70505;SDS011;58032;49.820;6.274;2022-08-14T01:31:08;5.10;;;3.42;;
70505;SDS011;58032;49.820;6.274;2022-08-14T01:33:38;4.50;;;2.92;;
70505;SDS011;58032;49.820;6.274;2022-08-14T01:36:11;7.38;;;3.38;;
70505;SDS011;58032;49.820;6.274;2022-08-14T01:38:39;4.57;;;3.25;;
70505;SDS011;58032;49.820;6.274;2022-08-14T01:41:09;4.47;;;2.87;;
70505;SDS011;58032;49.820;6.274;2022-08-14T01:43:42;5.50;;;3.30;;
70505;SDS011;58032;49.820;6.274;2022-08-14T01:46:33;7.25;;;2.90;;
70505;SDS011;58032;49.820;6.274;2022-08-14T01:49:09;6.47;;;3.50;;
70505;SDS011;58032;49.820;6.274;2022-08-14T01:51:38;5.20;;;3.45;;
70505;SDS011;58032;49.820;6.274;2022-08-14T01:54:06;5.73;;;3.60;;
70505;SDS011;58032;49.820;6.274;2022-08-14T01:56:36;5.07;;;3.38;;
70505;SDS011;58032;49.820;6.274;2022-08-14T02:01:48;4.47;;;3.35;;
70505;SDS011;58032;49.820;6.274;2022-08-14T02:04:20;5.28;;;3.45;;
70505;SDS011;58032;49.820;6.274;2022-08-14T02:06:49;6.17;;;3.83;;
70505;SDS011;58032;49.820;6.274;2022-08-14T02:09:18;5.70;;;3.78;;
70505;SDS011;58032;49.820;6.274;2022-08-14T02:11:48;5.75;;;3.50;;
70505;SDS011;58032;49.820;6.274;2022-08-14T02:14:17;5.70;;;3.83;;
70505;SDS011;58032;49.820;6.274;2022-08-14T02:16:47;5.53;;;3.78;;
70505;SDS011;58032;49.820;6.274;2022-08-14T02:19:22;5.53;;;3.80;;
70505;SDS011;58032;49.820;6.274;2022-08-14T02:21:53;4.80;;;3.60;;
70505;SDS011;58032;49.820;6.274;2022-08-14T02:24:24;6.18;;;3.85;;
70505;SDS011;58032;49.820;6.274;2022-08-14T02:26:52;5.40;;;3.58;;
70505;SDS011;58032;49.820;6.274;2022-08-14T02:29:21;5.68;;;3.50;;
70505;SDS011;58032;49.820;6.274;2022-08-14T02:31:51;5.07;;;3.80;;
70505;SDS011;58032;49.820;6.274;2022-08-14T02:34:22;5.38;;;3.95;;
70505;SDS011;58032;49.820;6.274;2022-08-14T02:36:55;6.28;;;3.75;;
70505;SDS011;58032;49.820;6.274;2022-08-14T02:39:25;6.32;;;3.92;;
70505;SDS011;58032;49.820;6.274;2022-08-14T02:41:52;6.03;;;4.13;;
70505;SDS011;58032;49.820;6.274;2022-08-14T02:44:20;5.80;;;4.20;;
70505;SDS011;58032;49.820;6.274;2022-08-14T02:46:49;5.38;;;3.78;;
70505;SDS011;58032;49.820;6.274;2022-08-14T02:49:18;6.07;;;3.85;;
70505;SDS011;58032;49.820;6.274;2022-08-14T02:51:55;6.53;;;3.75;;
70505;SDS011;58032;49.820;6.274;2022-08-14T02:54:24;6.72;;;4.20;;
70505;SDS011;58032;49.820;6.274;2022-08-14T02:56:53;6.17;;;4.40;;
70505;SDS011;58032;49.820;6.274;2022-08-14T02:59:22;5.47;;;4.25;;
70505;SDS011;58032;49.820;6.274;2022-08-14T03:01:55;6.45;;;4.45;;
70505;SDS011;58032;49.820;6.274;2022-08-14T03:04:23;6.07;;;4.45;;
70505;SDS011;58032;49.820;6.274;2022-08-14T03:06:54;5.68;;;4.25;;
70505;SDS011;58032;49.820;6.274;2022-08-14T03:09:21;6.83;;;4.87;;
70505;SDS011;58032;49.820;6.274;2022-08-14T03:11:48;8.02;;;4.70;;
70505;SDS011;58032;49.820;6.274;2022-08-14T03:14:15;5.88;;;4.35;;
70505;SDS011;58032;49.820;6.274;2022-08-14T03:16:42;5.72;;;4.25;;
70505;SDS011;58032;49.820;6.274;2022-08-14T03:19:11;6.38;;;4.30;;
70505;SDS011;58032;49.820;6.274;2022-08-14T03:21:39;6.13;;;4.23;;
70505;SDS011;58032;49.820;6.274;2022-08-14T03:24:06;6.63;;;4.25;;
70505;SDS011;58032;49.820;6.274;2022-08-14T03:26:40;7.28;;;4.07;;
70505;SDS011;58032;49.820;6.274;2022-08-14T03:29:09;6.68;;;5.07;;
70505;SDS011;58032;49.820;6.274;2022-08-14T03:31:38;6.22;;;4.53;;
70505;SDS011;58032;49.820;6.274;2022-08-14T03:34:06;6.33;;;4.63;;
70505;SDS011;58032;49.820;6.274;2022-08-14T03:36:36;6.55;;;4.75;;
70505;SDS011;58032;49.820;6.274;2022-08-14T03:39:06;6.47;;;5.15;;
70505;SDS011;58032;49.820;6.274;2022-08-14T03:41:34;6.47;;;4.80;;
70505;SDS011;58032;49.820;6.274;2022-08-14T03:44:03;6.25;;;4.88;;
70505;SDS011;58032;49.820;6.274;2022-08-14T03:46:33;6.80;;;4.70;;
70505;SDS011;58032;49.820;6.274;2022-08-14T03:49:03;6.28;;;4.72;;
70505;SDS011;58032;49.820;6.274;2022-08-14T03:51:31;6.65;;;4.65;;
70505;SDS011;58032;49.820;6.274;2022-08-14T03:54:00;6.20;;;4.70;;
70505;SDS011;58032;49.820;6.274;2022-08-14T03:56:29;6.90;;;4.93;;
70505;SDS011;58032;49.820;6.274;2022-08-14T03:58:58;7.10;;;4.40;;
70505;SDS011;58032;49.820;6.274;2022-08-14T04:01:30;7.20;;;4.53;;
70505;SDS011;58032;49.820;6.274;2022-08-14T04:03:57;5.82;;;4.43;;
70505;SDS011;58032;49.820;6.274;2022-08-14T04:06:35;6.13;;;4.75;;
70505;SDS011;58032;49.820;6.274;2022-08-14T04:09:04;7.25;;;4.75;;
70505;SDS011;58032;49.820;6.274;2022-08-14T04:11:33;6.57;;;5.20;;
70505;SDS011;58032;49.820;6.274;2022-08-14T04:14:02;9.05;;;5.78;;
70505;SDS011;58032;49.820;6.274;2022-08-14T04:16:30;7.22;;;5.32;;
70505;SDS011;58032;49.820;6.274;2022-08-14T04:18:58;7.35;;;4.88;;
70505;SDS011;58032;49.820;6.274;2022-08-14T04:21:26;9.32;;;5.30;;
70505;SDS011;58032;49.820;6.274;2022-08-14T04:23:58;8.07;;;5.00;;
70505;SDS011;58032;49.820;6.274;2022-08-14T04:26:27;6.20;;;4.68;;
70505;SDS011;58032;49.820;6.274;2022-08-14T04:28:55;7.82;;;4.95;;
70505;SDS011;58032;49.820;6.274;2022-08-14T04:31:23;6.78;;;4.72;;
70505;SDS011;58032;49.820;6.274;2022-08-14T04:33:51;10.30;;;4.63;;
70505;SDS011;58032;49.820;6.274;2022-08-14T04:36:18;6.07;;;4.87;;
70505;SDS011;58032;49.820;6.274;2022-08-14T04:38:45;9.00;;;5.10;;
70505;SDS011;58032;49.820;6.274;2022-08-14T04:41:31;7.93;;;5.50;;
70505;SDS011;58032;49.820;6.274;2022-08-14T04:44:16;9.07;;;5.63;;
70505;SDS011;58032;49.820;6.274;2022-08-14T04:46:43;9.20;;;5.18;;
70505;SDS011;58032;49.820;6.274;2022-08-14T04:49:29;6.57;;;5.30;;
70505;SDS011;58032;49.820;6.274;2022-08-14T04:51:56;8.70;;;5.65;;
70505;SDS011;58032;49.820;6.274;2022-08-14T04:54:23;7.35;;;5.50;;
70505;SDS011;58032;49.820;6.274;2022-08-14T04:56:54;7.78;;;5.40;;
70505;SDS011;58032;49.820;6.274;2022-08-14T04:59:22;7.07;;;5.53;;
70505;SDS011;58032;49.820;6.274;2022-08-14T05:01:50;6.93;;;5.03;;
70505;SDS011;58032;49.820;6.274;2022-08-14T05:04:20;7.00;;;4.70;;
70505;SDS011;58032;49.820;6.274;2022-08-14T05:06:51;8.48;;;5.15;;
70505;SDS011;58032;49.820;6.274;2022-08-14T05:09:20;6.55;;;4.70;;
70505;SDS011;58032;49.820;6.274;2022-08-14T05:11:50;6.80;;;5.18;;
70505;SDS011;58032;49.820;6.274;2022-08-14T05:14:18;6.47;;;4.97;;
70505;SDS011;58032;49.820;6.274;2022-08-14T05:16:47;6.88;;;4.85;;
70505;SDS011;58032;49.820;6.274;2022-08-14T05:19:14;6.05;;;4.78;;
70505;SDS011;58032;49.820;6.274;2022-08-14T05:21:44;6.70;;;4.53;;
70505;SDS011;58032;49.820;6.274;2022-08-14T05:24:11;6.50;;;4.85;;
70505;SDS011;58032;49.820;6.274;2022-08-14T05:26:38;6.50;;;4.90;;
70505;SDS011;58032;49.820;6.274;2022-08-14T05:29:10;8.85;;;4.93;;
70505;SDS011;58032;49.820;6.274;2022-08-14T05:31:37;6.95;;;5.05;;
70505;SDS011;58032;49.820;6.274;2022-08-14T05:34:06;7.93;;;5.20;;
70505;SDS011;58032;49.820;6.274;2022-08-14T05:36:35;7.85;;;5.25;;
70505;SDS011;58032;49.820;6.274;2022-08-14T05:39:03;6.40;;;5.17;;
70505;SDS011;58032;49.820;6.274;2022-08-14T05:41:30;5.90;;;4.80;;
70505;SDS011;58032;49.820;6.274;2022-08-14T05:43:58;6.22;;;5.00;;
70505;SDS011;58032;49.820;6.274;2022-08-14T05:46:26;7.68;;;4.90;;
70505;SDS011;58032;49.820;6.274;2022-08-14T05:48:54;8.45;;;5.47;;
70505;SDS011;58032;49.820;6.274;2022-08-14T05:51:23;6.43;;;5.03;;
70505;SDS011;58032;49.820;6.274;2022-08-14T05:53:51;10.30;;;5.20;;
70505;SDS011;58032;49.820;6.274;2022-08-14T05:56:18;8.20;;;5.40;;
70505;SDS011;58032;49.820;6.274;2022-08-14T05:58:45;6.90;;;5.05;;
70505;SDS011;58032;49.820;6.274;2022-08-14T06:01:12;6.50;;;5.18;;
70505;SDS011;58032;49.820;6.274;2022-08-14T06:03:39;6.17;;;4.87;;
70505;SDS011;58032;49.820;6.274;2022-08-14T06:06:06;5.93;;;4.57;;
70505;SDS011;58032;49.820;6.274;2022-08-14T06:08:34;5.93;;;5.15;;
70505;SDS011;58032;49.820;6.274;2022-08-14T06:11:06;8.20;;;5.05;;
70505;SDS011;58032;49.820;6.274;2022-08-14T06:13:35;6.75;;;4.82;;
70505;SDS011;58032;49.820;6.274;2022-08-14T06:16:04;6.03;;;4.53;;
70505;SDS011;58032;49.820;6.274;2022-08-14T06:18:31;7.50;;;4.60;;
70505;SDS011;58032;49.820;6.274;2022-08-14T06:20:59;7.15;;;4.75;;
70505;SDS011;58032;49.820;6.274;2022-08-14T06:23:26;6.28;;;4.93;;
70505;SDS011;58032;49.820;6.274;2022-08-14T06:25:53;7.07;;;4.97;;
70505;SDS011;58032;49.820;6.274;2022-08-14T06:28:21;6.33;;;4.73;;
70505;SDS011;58032;49.820;6.274;2022-08-14T06:30:51;7.20;;;4.97;;
70505;SDS011;58032;49.820;6.274;2022-08-14T06:33:20;6.03;;;4.72;;
70505;SDS011;58032;49.820;6.274;2022-08-14T06:35:47;7.85;;;4.75;;
70505;SDS011;58032;49.820;6.274;2022-08-14T06:38:19;6.88;;;4.95;;
70505;SDS011;58032;49.820;6.274;2022-08-14T06:40:48;6.93;;;4.83;;
70505;SDS011;58032;49.820;6.274;2022-08-14T06:43:16;7.50;;;4.65;;
70505;SDS011;58032;49.820;6.274;2022-08-14T06:45:45;6.07;;;4.50;;
70505;SDS011;58032;49.820;6.274;2022-08-14T06:48:14;9.00;;;4.80;;
70505;SDS011;58032;49.820;6.274;2022-08-14T06:50:46;7.15;;;4.45;;
70505;SDS011;58032;49.820;6.274;2022-08-14T06:53:14;8.57;;;5.03;;
70505;SDS011;58032;49.820;6.274;2022-08-14T06:55:44;6.75;;;4.80;;
70505;SDS011;58032;49.820;6.274;2022-08-14T06:58:12;8.18;;;4.50;;
70505;SDS011;58032;49.820;6.274;2022-08-14T07:00:41;7.32;;;3.92;;
70505;SDS011;58032;49.820;6.274;2022-08-14T07:03:29;8.75;;;4.63;;
70505;SDS011;58032;49.820;6.274;2022-08-14T07:06:16;6.30;;;4.50;;
70505;SDS011;58032;49.820;6.274;2022-08-14T07:08:43;8.48;;;5.07;;
70505;SDS011;58032;49.820;6.274;2022-08-14T07:11:11;8.90;;;4.47;;
70505;SDS011;58032;49.820;6.274;2022-08-14T07:13:39;7.20;;;4.50;;
70505;SDS011;58032;49.820;6.274;2022-08-14T07:16:06;6.88;;;4.70;;
70505;SDS011;58032;49.820;6.274;2022-08-14T07:18:34;5.43;;;4.13;;
70505;SDS011;58032;49.820;6.274;2022-08-14T07:21:02;7.18;;;4.70;;
70505;SDS011;58032;49.820;6.274;2022-08-14T07:23:31;6.90;;;4.95;;
70505;SDS011;58032;49.820;6.274;2022-08-14T07:25:59;7.30;;;4.95;;
70505;SDS011;58032;49.820;6.274;2022-08-14T07:28:29;7.00;;;4.82;;
70505;SDS011;58032;49.820;6.274;2022-08-14T07:31:01;12.03;;;5.33;;
70505;SDS011;58032;49.820;6.274;2022-08-14T07:33:32;6.70;;;4.65;;
70505;SDS011;58032;49.820;6.274;2022-08-14T07:36:06;7.40;;;4.30;;
70505;SDS011;58032;49.820;6.274;2022-08-14T07:38:35;8.45;;;4.80;;
70505;SDS011;58032;49.820;6.274;2022-08-14T07:41:03;7.35;;;5.07;;
70505;SDS011;58032;49.820;6.274;2022-08-14T07:43:31;8.77;;;5.00;;
70505;SDS011;58032;49.820;6.274;2022-08-14T07:45:58;6.88;;;4.57;;
70505;SDS011;58032;49.820;6.274;2022-08-14T07:48:25;6.78;;;4.65;;
70505;SDS011;58032;49.820;6.274;2022-08-14T07:50:52;6.57;;;4.97;;
70505;SDS011;58032;49.820;6.274;2022-08-14T07:53:21;6.30;;;4.60;;
70505;SDS011;58032;49.820;6.274;2022-08-14T07:55:48;6.57;;;4.80;;
70505;SDS011;58032;49.820;6.274;2022-08-14T07:58:16;7.10;;;4.45;;
70505;SDS011;58032;49.820;6.274;2022-08-14T08:00:53;6.45;;;4.05;;
70505;SDS011;58032;49.820;6.274;2022-08-14T08:03:46;6.05;;;4.75;;
70505;SDS011;58032;49.820;6.274;2022-08-14T08:06:15;7.70;;;4.70;;
70505;SDS011;58032;49.820;6.274;2022-08-14T08:08:57;6.17;;;4.37;;
70505;SDS011;58032;49.820;6.274;2022-08-14T08:11:32;6.38;;;4.65;;
70505;SDS011;58032;49.820;6.274;2022-08-14T08:14:27;5.63;;;4.25;;
70505;SDS011;58032;49.820;6.274;2022-08-14T08:17:04;6.68;;;4.68;;
70505;SDS011;58032;49.820;6.274;2022-08-14T08:19:36;5.53;;;4.45;;
70505;SDS011;58032;49.820;6.274;2022-08-14T08:22:07;7.10;;;4.43;;
70505;SDS011;58032;49.820;6.274;2022-08-14T08:24:44;6.80;;;4.45;;
70505;SDS011;58032;49.820;6.274;2022-08-14T08:27:20;5.70;;;4.25;;
70505;SDS011;58032;49.820;6.274;2022-08-14T08:29:47;6.30;;;4.30;;
70505;SDS011;58032;49.820;6.274;2022-08-14T08:32:14;6.00;;;4.68;;
70505;SDS011;58032;49.820;6.274;2022-08-14T08:34:41;6.43;;;3.83;;
70505;SDS011;58032;49.820;6.274;2022-08-14T08:37:13;5.65;;;4.20;;
70505;SDS011;58032;49.820;6.274;2022-08-14T08:39:44;5.45;;;4.90;;
70505;SDS011;58032;49.820;6.274;2022-08-14T08:42:12;5.82;;;4.65;;
70505;SDS011;58032;49.820;6.274;2022-08-14T08:44:53;4.78;;;4.00;;
70505;SDS011;58032;49.820;6.274;2022-08-14T08:47:21;5.60;;;3.73;;
70505;SDS011;58032;49.820;6.274;2022-08-14T08:49:48;5.38;;;4.38;;
70505;SDS011;58032;49.820;6.274;2022-08-14T08:52:15;6.50;;;4.40;;
70505;SDS011;58032;49.820;6.274;2022-08-14T08:54:51;5.83;;;4.63;;
70505;SDS011;58032;49.820;6.274;2022-08-14T08:57:20;7.20;;;4.28;;
70505;SDS011;58032;49.820;6.274;2022-08-14T08:59:47;5.03;;;4.40;;
70505;SDS011;58032;49.820;6.274;2022-08-14T09:02:14;5.95;;;4.43;;
70505;SDS011;58032;49.820;6.274;2022-08-14T09:04:43;5.82;;;3.67;;
70505;SDS011;58032;49.820;6.274;2022-08-14T09:07:11;5.23;;;3.53;;
70505;SDS011;58032;49.820;6.274;2022-08-14T09:09:39;4.53;;;3.63;;
70505;SDS011;58032;49.820;6.274;2022-08-14T09:12:20;5.25;;;3.90;;
70505;SDS011;58032;49.820;6.274;2022-08-14T09:14:47;6.05;;;3.83;;
70505;SDS011;58032;49.820;6.274;2022-08-14T09:17:18;6.50;;;3.95;;
70505;SDS011;58032;49.820;6.274;2022-08-14T09:19:46;5.60;;;4.30;;
70505;SDS011;58032;49.820;6.274;2022-08-14T09:22:13;4.72;;;3.63;;
70505;SDS011;58032;49.820;6.274;2022-08-14T09:24:41;6.22;;;4.10;;
70505;SDS011;58032;49.820;6.274;2022-08-14T09:27:10;4.65;;;3.30;;
70505;SDS011;58032;49.820;6.274;2022-08-14T09:29:37;3.92;;;3.08;;
70505;SDS011;58032;49.820;6.274;2022-08-14T09:32:04;4.43;;;3.00;;
70505;SDS011;58032;49.820;6.274;2022-08-14T09:34:41;6.85;;;3.58;;
70505;SDS011;58032;49.820;6.274;2022-08-14T09:43:06;6.28;;;3.50;;
70505;SDS011;58032;49.820;6.274;2022-08-14T09:45:45;3.80;;;3.00;;
70505;SDS011;58032;49.820;6.274;2022-08-14T09:48:18;5.10;;;3.20;;
70505;SDS011;58032;49.820;6.274;2022-08-14T09:50:47;5.63;;;3.33;;
70505;SDS011;58032;49.820;6.274;2022-08-14T09:53:15;6.07;;;2.70;;
70505;SDS011;58032;49.820;6.274;2022-08-14T09:56:03;3.88;;;2.80;;
70505;SDS011;58032;49.820;6.274;2022-08-14T09:58:50;5.47;;;3.33;;
70505;SDS011;58032;49.820;6.274;2022-08-14T10:01:18;4.28;;;2.65;;
70505;SDS011;58032;49.820;6.274;2022-08-14T10:06:16;3.88;;;3.03;;
70505;SDS011;58032;49.820;6.274;2022-08-14T10:08:49;3.50;;;2.60;;
70505;SDS011;58032;49.820;6.274;2022-08-14T10:11:20;5.70;;;2.63;;
70505;SDS011;58032;49.820;6.274;2022-08-14T10:13:50;3.88;;;2.85;;
70505;SDS011;58032;49.820;6.274;2022-08-14T10:16:20;3.72;;;2.97;;
70505;SDS011;58032;49.820;6.274;2022-08-14T10:19:27;4.28;;;2.40;;
70505;SDS011;58032;49.820;6.274;2022-08-14T10:21:59;3.95;;;3.00;;
70505;SDS011;58032;49.820;6.274;2022-08-14T10:24:37;5.17;;;2.80;;
70505;SDS011;58032;49.820;6.274;2022-08-14T10:27:15;4.15;;;3.00;;
70505;SDS011;58032;49.820;6.274;2022-08-14T10:29:51;4.22;;;2.70;;
70505;SDS011;58032;49.820;6.274;2022-08-14T10:32:26;4.60;;;2.85;;
70505;SDS011;58032;49.820;6.274;2022-08-14T10:35:07;4.60;;;3.10;;
70505;SDS011;58032;49.820;6.274;2022-08-14T10:37:37;4.33;;;2.73;;
70505;SDS011;58032;49.820;6.274;2022-08-14T10:40:06;6.68;;;3.17;;
70505;SDS011;58032;49.820;6.274;2022-08-14T10:42:34;5.35;;;2.90;;
70505;SDS011;58032;49.820;6.274;2022-08-14T10:45:15;4.47;;;2.47;;
70505;SDS011;58032;49.820;6.274;2022-08-14T10:47:47;4.47;;;2.65;;
70505;SDS011;58032;49.820;6.274;2022-08-14T10:50:15;3.40;;;2.50;;
70505;SDS011;58032;49.820;6.274;2022-08-14T10:52:42;3.85;;;2.63;;
70505;SDS011;58032;49.820;6.274;2022-08-14T10:55:14;3.92;;;2.78;;
70505;SDS011;58032;49.820;6.274;2022-08-14T10:57:45;3.20;;;2.70;;
70505;SDS011;58032;49.820;6.274;2022-08-14T11:00:18;4.45;;;2.90;;
70505;SDS011;58032;49.820;6.274;2022-08-14T11:02:57;3.80;;;2.77;;
70505;SDS011;58032;49.820;6.274;2022-08-14T11:05:25;3.70;;;2.60;;
70505;SDS011;58032;49.820;6.274;2022-08-14T11:08:06;3.80;;;3.00;;
70505;SDS011;58032;49.820;6.274;2022-08-14T11:10:38;4.32;;;2.83;;
70505;SDS011;58032;49.820;6.274;2022-08-14T11:13:19;4.32;;;2.83;;
70505;SDS011;58032;49.820;6.274;2022-08-14T11:15:47;4.83;;;2.47;;
70505;SDS011;58032;49.820;6.274;2022-08-14T11:18:18;3.92;;;2.97;;
70505;SDS011;58032;49.820;6.274;2022-08-14T11:20:50;4.10;;;2.80;;
70505;SDS011;58032;49.820;6.274;2022-08-14T11:23:24;3.92;;;2.95;;
70505;SDS011;58032;49.820;6.274;2022-08-14T11:25:57;5.20;;;3.55;;
70505;SDS011;58032;49.820;6.274;2022-08-14T11:28:26;4.00;;;2.37;;
70505;SDS011;58032;49.820;6.274;2022-08-14T11:30:58;9.25;;;4.70;;
70505;SDS011;58032;49.820;6.274;2022-08-14T11:33:25;10.90;;;4.53;;
70505;SDS011;58032;49.820;6.274;2022-08-14T11:35:57;4.45;;;2.80;;
70505;SDS011;58032;49.820;6.274;2022-08-14T11:38:27;6.25;;;3.35;;
70505;SDS011;58032;49.820;6.274;2022-08-14T11:41:02;7.10;;;3.80;;
70505;SDS011;58032;49.820;6.274;2022-08-14T11:43:31;4.93;;;3.25;;
70505;SDS011;58032;49.820;6.274;2022-08-14T11:45:58;4.38;;;2.65;;
70505;SDS011;58032;49.820;6.274;2022-08-14T11:48:26;5.10;;;3.40;;
70505;SDS011;58032;49.820;6.274;2022-08-14T11:50:53;4.72;;;3.10;;
70505;SDS011;58032;49.820;6.274;2022-08-14T11:53:24;5.23;;;2.97;;
70505;SDS011;58032;49.820;6.274;2022-08-14T11:55:56;3.65;;;2.80;;
70505;SDS011;58032;49.820;6.274;2022-08-14T11:58:29;3.30;;;2.60;;
70505;SDS011;58032;49.820;6.274;2022-08-14T12:00:58;5.13;;;2.83;;
70505;SDS011;58032;49.820;6.274;2022-08-14T12:06:05;4.17;;;3.00;;
70505;SDS011;58032;49.820;6.274;2022-08-14T12:08:34;3.75;;;2.65;;
70505;SDS011;58032;49.820;6.274;2022-08-14T12:11:02;4.30;;;2.95;;
70505;SDS011;58032;49.820;6.274;2022-08-14T12:13:31;8.82;;;2.92;;
70505;SDS011;58032;49.820;6.274;2022-08-14T12:16:03;4.70;;;2.80;;
70505;SDS011;58032;49.820;6.274;2022-08-14T12:18:33;4.27;;;2.47;;
70505;SDS011;58032;49.820;6.274;2022-08-14T12:21:15;3.95;;;2.88;;
70505;SDS011;58032;49.820;6.274;2022-08-14T12:23:43;3.70;;;3.00;;
70505;SDS011;58032;49.820;6.274;2022-08-14T12:26:15;8.00;;;3.13;;
70505;SDS011;58032;49.820;6.274;2022-08-14T12:28:49;5.05;;;3.22;;
70505;SDS011;58032;49.820;6.274;2022-08-14T12:31:17;4.17;;;3.37;;
70505;SDS011;58032;49.820;6.274;2022-08-14T12:33:56;4.68;;;2.60;;
70505;SDS011;58032;49.820;6.274;2022-08-14T12:36:25;3.80;;;2.97;;
70505;SDS011;58032;49.820;6.274;2022-08-14T12:38:56;4.22;;;3.00;;
70505;SDS011;58032;49.820;6.274;2022-08-14T12:41:25;3.53;;;2.67;;
70505;SDS011;58032;49.820;6.274;2022-08-14T12:43:57;3.80;;;2.37;;
70505;SDS011;58032;49.820;6.274;2022-08-14T12:46:31;4.43;;;2.95;;
70505;SDS011;58032;49.820;6.274;2022-08-14T12:49:05;4.10;;;2.85;;
70505;SDS011;58032;49.820;6.274;2022-08-14T12:51:43;4.85;;;3.35;;
70505;SDS011;58032;49.820;6.274;2022-08-14T12:54:21;3.63;;;3.00;;
70505;SDS011;58032;49.820;6.274;2022-08-14T12:56:48;6.50;;;2.70;;
70505;SDS011;58032;49.820;6.274;2022-08-14T12:59:15;3.63;;;2.60;;
70505;SDS011;58032;49.820;6.274;2022-08-14T13:01:44;4.30;;;3.13;;
70505;SDS011;58032;49.820;6.274;2022-08-14T13:04:13;5.40;;;3.00;;
70505;SDS011;58032;49.820;6.274;2022-08-14T13:06:42;3.95;;;3.15;;
70505;SDS011;58032;49.820;6.274;2022-08-14T13:09:12;4.80;;;3.03;;
70505;SDS011;58032;49.820;6.274;2022-08-14T13:11:43;3.97;;;2.75;;
70505;SDS011;58032;49.820;6.274;2022-08-14T13:14:21;4.75;;;3.50;;
70505;SDS011;58032;49.820;6.274;2022-08-14T13:16:53;4.20;;;3.35;;
70505;SDS011;58032;49.820;6.274;2022-08-14T13:19:21;3.60;;;2.83;;
70505;SDS011;58032;49.820;6.274;2022-08-14T13:21:50;4.27;;;3.00;;
70505;SDS011;58032;49.820;6.274;2022-08-14T13:24:21;3.78;;;2.90;;
70505;SDS011;58032;49.820;6.274;2022-08-14T13:26:50;3.83;;;3.30;;
70505;SDS011;58032;49.820;6.274;2022-08-14T13:29:20;4.32;;;3.10;;
70505;SDS011;58032;49.820;6.274;2022-08-14T13:31:50;4.15;;;3.00;;
70505;SDS011;58032;49.820;6.274;2022-08-14T13:34:19;4.67;;;3.20;;
70505;SDS011;58032;49.820;6.274;2022-08-14T13:36:47;3.40;;;3.03;;
70505;SDS011;58032;49.820;6.274;2022-08-14T13:39:15;3.97;;;3.10;;
70505;SDS011;58032;49.820;6.274;2022-08-14T13:41:44;4.03;;;3.33;;
70505;SDS011;58032;49.820;6.274;2022-08-14T13:44:13;6.40;;;3.22;;
70505;SDS011;58032;49.820;6.274;2022-08-14T13:46:41;3.90;;;3.00;;
70505;SDS011;58032;49.820;6.274;2022-08-14T13:49:11;4.50;;;2.88;;
70505;SDS011;58032;49.820;6.274;2022-08-14T13:51:40;4.63;;;2.97;;
70505;SDS011;58032;49.820;6.274;2022-08-14T13:54:18;4.30;;;2.67;;
70505;SDS011;58032;49.820;6.274;2022-08-14T13:56:46;4.28;;;3.35;;
70505;SDS011;58032;49.820;6.274;2022-08-14T13:59:14;6.53;;;3.28;;
70505;SDS011;58032;49.820;6.274;2022-08-14T14:01:43;4.27;;;2.90;;
70505;SDS011;58032;49.820;6.274;2022-08-14T14:04:12;4.03;;;2.90;;
70505;SDS011;58032;49.820;6.274;2022-08-14T14:06:47;3.80;;;2.90;;
70505;SDS011;58032;49.820;6.274;2022-08-14T14:09:20;3.58;;;2.67;;
70505;SDS011;58032;49.820;6.274;2022-08-14T14:11:53;4.75;;;2.95;;
70505;SDS011;58032;49.820;6.274;2022-08-14T14:14:24;4.80;;;2.50;;
70505;SDS011;58032;49.820;6.274;2022-08-14T14:16:51;3.50;;;2.40;;
70505;SDS011;58032;49.820;6.274;2022-08-14T14:19:18;4.13;;;3.05;;
70505;SDS011;58032;49.820;6.274;2022-08-14T14:21:49;3.42;;;2.70;;
70505;SDS011;58032;49.820;6.274;2022-08-14T14:24:16;4.97;;;3.00;;
70505;SDS011;58032;49.820;6.274;2022-08-14T14:26:46;3.30;;;2.37;;
70505;SDS011;58032;49.820;6.274;2022-08-14T14:29:14;3.50;;;2.60;;
70505;SDS011;58032;49.820;6.274;2022-08-14T14:31:42;4.65;;;2.70;;
70505;SDS011;58032;49.820;6.274;2022-08-14T14:34:15;3.97;;;2.45;;
70505;SDS011;58032;49.820;6.274;2022-08-14T14:36:44;4.32;;;2.90;;
70505;SDS011;58032;49.820;6.274;2022-08-14T14:39:11;4.53;;;2.90;;
70505;SDS011;58032;49.820;6.274;2022-08-14T14:41:44;3.67;;;2.42;;
70505;SDS011;58032;49.820;6.274;2022-08-14T14:44:18;4.75;;;2.70;;
70505;SDS011;58032;49.820;6.274;2022-08-14T14:46:48;3.85;;;2.70;;
70505;SDS011;58032;49.820;6.274;2022-08-14T14:49:17;8.73;;;2.83;;
70505;SDS011;58032;49.820;6.274;2022-08-14T14:51:45;3.90;;;2.83;;
70505;SDS011;58032;49.820;6.274;2022-08-14T14:54:13;3.83;;;2.88;;
70505;SDS011;58032;49.820;6.274;2022-08-14T14:56:43;3.50;;;2.70;;
70505;SDS011;58032;49.820;6.274;2022-08-14T14:59:11;3.83;;;2.63;;
70505;SDS011;58032;49.820;6.274;2022-08-14T15:01:40;3.58;;;2.75;;
70505;SDS011;58032;49.820;6.274;2022-08-14T15:04:12;5.17;;;2.30;;
70505;SDS011;58032;49.820;6.274;2022-08-14T15:06:39;3.50;;;2.72;;
70505;SDS011;58032;49.820;6.274;2022-08-14T15:09:07;3.58;;;2.80;;
70505;SDS011;58032;49.820;6.274;2022-08-14T15:11:34;3.13;;;2.70;;
70505;SDS011;58032;49.820;6.274;2022-08-14T15:14:01;4.82;;;3.00;;
70505;SDS011;58032;49.820;6.274;2022-08-14T15:16:28;3.07;;;2.23;;
70505;SDS011;58032;49.820;6.274;2022-08-14T15:18:55;5.05;;;2.65;;
70505;SDS011;58032;49.820;6.274;2022-08-14T15:21:22;3.50;;;2.20;;